sensor_id;sensor_type;location;lat;lon;timestamp;pressure;altitude;pressure_sealevel;temperature;humidity
19590;BME280;12231;42.782;23.388;2022-07-22T00:01:53;95596.53;;;21.37;63.63
19590;BME280;12231;42.782;23.388;2022-07-22T00:04:18;95590.72;;;21.17;64.76
19590;BME280;12231;42.782;23.388;2022-07-22T00:06:44;95589.47;;;20.61;65.80
19590;BME280;12231;42.782;23.388;2022-07-22T00:09:09;95588.09;;;20.31;67.17
19590;BME280;12231;42.782;23.388;2022-07-22T00:11:35;95584.78;;;20.29;67.97
19590;BME280;12231;42.782;23.388;2022-07-22T00:14:00;95587.63;;;20.35;67.66
19590;BME280;12231;42.782;23.388;2022-07-22T00:16:26;95593.31;;;20.49;68.41
19590;BME280;12231;42.782;23.388;2022-07-22T00:18:51;95582.75;;;20.58;68.15
19590;BME280;12231;42.782;23.388;2022-07-22T00:21:17;95589.97;;;20.64;67.56
19590;BME280;12231;42.782;23.388;2022-07-22T00:23:42;95594.00;;;20.76;67.07
19590;BME280;12231;42.782;23.388;2022-07-22T00:26:08;95596.88;;;20.65;66.63
19590;BME280;12231;42.782;23.388;2022-07-22T00:28:33;95595.34;;;20.37;67.20
19590;BME280;12231;42.782;23.388;2022-07-22T00:30:58;95600.63;;;20.45;67.72
19590;BME280;12231;42.782;23.388;2022-07-22T00:33:24;95603.94;;;20.29;68.03
19590;BME280;12231;42.782;23.388;2022-07-22T00:35:51;95598.75;;;20.20;67.66
19590;BME280;12231;42.782;23.388;2022-07-22T00:38:16;95608.34;;;19.84;69.03
19590;BME280;12231;42.782;23.388;2022-07-22T00:40:42;95607.22;;;19.69;69.96
19590;BME280;12231;42.782;23.388;2022-07-22T00:43:07;95601.91;;;19.52;71.10
19590;BME280;12231;42.782;23.388;2022-07-22T00:45:33;95606.41;;;19.42;71.44
19590;BME280;12231;42.782;23.388;2022-07-22T00:47:58;95606.03;;;19.17;73.34
19590;BME280;12231;42.782;23.388;2022-07-22T00:50:24;95608.63;;;19.17;73.65
19590;BME280;12231;42.782;23.388;2022-07-22T00:52:50;95607.09;;;19.25;73.37
19590;BME280;12231;42.782;23.388;2022-07-22T00:55:15;95604.78;;;19.22;74.16
19590;BME280;12231;42.782;23.388;2022-07-22T00:57:41;95606.69;;;19.29;74.47
19590;BME280;12231;42.782;23.388;2022-07-22T01:00:12;95607.63;;;19.38;74.94
19590;BME280;12231;42.782;23.388;2022-07-22T01:02:38;95613.59;;;19.57;73.94
19590;BME280;12231;42.782;23.388;2022-07-22T01:05:05;95608.91;;;19.61;73.41
19590;BME280;12231;42.782;23.388;2022-07-22T01:07:30;95601.69;;;19.45;74.81
19590;BME280;12231;42.782;23.388;2022-07-22T01:09:56;95599.69;;;19.57;75.14
19590;BME280;12231;42.782;23.388;2022-07-22T01:12:21;95605.19;;;19.81;73.81
19590;BME280;12231;42.782;23.388;2022-07-22T01:14:47;95609.66;;;19.98;73.71
19590;BME280;12231;42.782;23.388;2022-07-22T01:17:12;95609.13;;;19.94;73.62
19590;BME280;12231;42.782;23.388;2022-07-22T01:19:38;95607.72;;;20.00;73.49
19590;BME280;12231;42.782;23.388;2022-07-22T01:22:04;95602.41;;;19.92;73.28
19590;BME280;12231;42.782;23.388;2022-07-22T01:24:30;95606.66;;;19.93;73.49
19590;BME280;12231;42.782;23.388;2022-07-22T01:26:55;95609.66;;;19.98;73.33
19590;BME280;12231;42.782;23.388;2022-07-22T01:29:21;95606.50;;;19.94;72.74
19590;BME280;12231;42.782;23.388;2022-07-22T01:31:46;95606.25;;;19.88;73.14
19590;BME280;12231;42.782;23.388;2022-07-22T01:34:12;95616.69;;;19.70;73.40
19590;BME280;12231;42.782;23.388;2022-07-22T01:36:38;95607.41;;;19.85;72.05
19590;BME280;12231;42.782;23.388;2022-07-22T01:39:03;95611.50;;;19.88;72.07
19590;BME280;12231;42.782;23.388;2022-07-22T01:41:29;95613.59;;;19.84;71.47
19590;BME280;12231;42.782;23.388;2022-07-22T01:43:54;95610.66;;;19.87;72.27
19590;BME280;12231;42.782;23.388;2022-07-22T01:46:19;95613.81;;;19.91;71.96
19590;BME280;12231;42.782;23.388;2022-07-22T01:48:45;95615.63;;;19.90;72.44
19590;BME280;12231;42.782;23.388;2022-07-22T01:51:11;95612.41;;;19.96;72.47
19590;BME280;12231;42.782;23.388;2022-07-22T01:53:36;95616.13;;;19.94;72.22
19590;BME280;12231;42.782;23.388;2022-07-22T01:56:02;95614.28;;;20.04;72.58
19590;BME280;12231;42.782;23.388;2022-07-22T01:58:28;95611.50;;;20.05;72.11
19590;BME280;12231;42.782;23.388;2022-07-22T02:00:53;95619.84;;;20.18;71.97
19590;BME280;12231;42.782;23.388;2022-07-22T02:03:19;95611.69;;;20.21;71.50
19590;BME280;12231;42.782;23.388;2022-07-22T02:05:44;95615.22;;;20.30;71.04
19590;BME280;12231;42.782;23.388;2022-07-22T02:08:10;95612.59;;;20.30;70.97
19590;BME280;12231;42.782;23.388;2022-07-22T02:10:36;95613.81;;;20.35;70.76
19590;BME280;12231;42.782;23.388;2022-07-22T02:13:03;95613.13;;;20.33;70.86
19590;BME280;12231;42.782;23.388;2022-07-22T02:15:29;95615.28;;;20.38;70.96
19590;BME280;12231;42.782;23.388;2022-07-22T02:17:55;95618.81;;;20.47;70.88
19590;BME280;12231;42.782;23.388;2022-07-22T02:20:21;95615.09;;;20.49;70.31
19590;BME280;12231;42.782;23.388;2022-07-22T02:22:46;95623.75;;;20.50;70.42
19590;BME280;12231;42.782;23.388;2022-07-22T02:25:12;95617.19;;;20.46;70.43
19590;BME280;12231;42.782;23.388;2022-07-22T02:27:38;95618.97;;;20.45;70.52
19590;BME280;12231;42.782;23.388;2022-07-22T02:30:04;95609.91;;;20.39;70.44
19590;BME280;12231;42.782;23.388;2022-07-22T02:32:30;95615.06;;;20.31;70.56
19590;BME280;12231;42.782;23.388;2022-07-22T02:34:56;95618.53;;;20.14;71.00
19590;BME280;12231;42.782;23.388;2022-07-22T02:37:21;95627.66;;;19.83;72.49
19590;BME280;12231;42.782;23.388;2022-07-22T02:39:47;95625.34;;;19.44;74.54
19590;BME280;12231;42.782;23.388;2022-07-22T02:42:12;95625.59;;;19.50;74.64
19590;BME280;12231;42.782;23.388;2022-07-22T02:44:38;95623.09;;;19.58;75.00
19590;BME280;12231;42.782;23.388;2022-07-22T02:47:03;95618.69;;;19.59;74.86
19590;BME280;12231;42.782;23.388;2022-07-22T02:49:29;95617.84;;;19.68;74.69
19590;BME280;12231;42.782;23.388;2022-07-22T02:51:54;95622.16;;;19.77;74.05
19590;BME280;12231;42.782;23.388;2022-07-22T02:54:19;95618.88;;;19.75;73.98
19590;BME280;12231;42.782;23.388;2022-07-22T02:56:45;95618.00;;;19.84;73.87
19590;BME280;12231;42.782;23.388;2022-07-22T02:59:10;95623.56;;;19.98;73.32
19590;BME280;12231;42.782;23.388;2022-07-22T03:01:36;95622.66;;;20.07;73.02
19590;BME280;12231;42.782;23.388;2022-07-22T03:04:01;95613.31;;;20.05;72.40
19590;BME280;12231;42.782;23.388;2022-07-22T03:06:27;95621.34;;;20.03;71.90
19590;BME280;12231;42.782;23.388;2022-07-22T03:08:52;95626.97;;;19.99;71.83
19590;BME280;12231;42.782;23.388;2022-07-22T03:11:17;95621.91;;;19.97;72.32
19590;BME280;12231;42.782;23.388;2022-07-22T03:13:43;95622.19;;;19.94;71.98
19590;BME280;12231;42.782;23.388;2022-07-22T03:16:08;95627.88;;;19.90;72.10
19590;BME280;12231;42.782;23.388;2022-07-22T03:18:34;95631.09;;;19.84;71.84
19590;BME280;12231;42.782;23.388;2022-07-22T03:21:00;95634.66;;;19.83;71.73
19590;BME280;12231;42.782;23.388;2022-07-22T03:23:25;95633.97;;;19.81;71.88
19590;BME280;12231;42.782;23.388;2022-07-22T03:25:51;95632.03;;;19.83;72.06
19590;BME280;12231;42.782;23.388;2022-07-22T03:28:16;95637.28;;;19.83;72.31
19590;BME280;12231;42.782;23.388;2022-07-22T03:30:42;95633.13;;;19.90;71.68
19590;BME280;12231;42.782;23.388;2022-07-22T03:33:07;95632.19;;;19.81;72.40
19590;BME280;12231;42.782;23.388;2022-07-22T03:35:33;95636.91;;;19.51;73.06
19590;BME280;12231;42.782;23.388;2022-07-22T03:37:58;95640.91;;;19.45;73.29
19590;BME280;12231;42.782;23.388;2022-07-22T03:40:24;95641.84;;;19.54;73.68
19590;BME280;12231;42.782;23.388;2022-07-22T03:42:49;95648.69;;;19.64;73.55
19590;BME280;12231;42.782;23.388;2022-07-22T03:45:14;95643.66;;;19.98;72.06
19590;BME280;12231;42.782;23.388;2022-07-22T03:47:41;95645.00;;;20.29;71.15
19590;BME280;12231;42.782;23.388;2022-07-22T03:50:07;95641.09;;;20.68;70.13
19590;BME280;12231;42.782;23.388;2022-07-22T03:52:32;95638.66;;;20.92;67.96
19590;BME280;12231;42.782;23.388;2022-07-22T03:54:58;95640.31;;;21.36;67.19
19590;BME280;12231;42.782;23.388;2022-07-22T03:57:23;95637.13;;;21.84;65.56
19590;BME280;12231;42.782;23.388;2022-07-22T03:59:49;95639.34;;;22.29;63.82
19590;BME280;12231;42.782;23.388;2022-07-22T04:02:14;95643.06;;;22.76;61.54
19590;BME280;12231;42.782;23.388;2022-07-22T04:04:39;95642.38;;;23.22;60.05
19590;BME280;12231;42.782;23.388;2022-07-22T04:07:05;95636.50;;;23.67;58.53
19590;BME280;12231;42.782;23.388;2022-07-22T04:09:30;95639.88;;;23.99;56.93
19590;BME280;12231;42.782;23.388;2022-07-22T04:11:56;95641.66;;;24.38;55.75
19590;BME280;12231;42.782;23.388;2022-07-22T04:14:21;95637.63;;;24.72;54.53
19590;BME280;12231;42.782;23.388;2022-07-22T04:16:47;95644.97;;;25.22;53.44
19590;BME280;12231;42.782;23.388;2022-07-22T04:19:13;95632.94;;;25.71;51.84
19590;BME280;12231;42.782;23.388;2022-07-22T04:21:39;95639.00;;;26.01;51.14
19590;BME280;12231;42.782;23.388;2022-07-22T04:24:05;95643.00;;;26.26;50.19
19590;BME280;12231;42.782;23.388;2022-07-22T04:26:30;95643.06;;;26.68;49.23
19590;BME280;12231;42.782;23.388;2022-07-22T04:28:56;95641.81;;;27.06;47.87
19590;BME280;12231;42.782;23.388;2022-07-22T04:31:21;95635.03;;;27.52;47.53
19590;BME280;12231;42.782;23.388;2022-07-22T04:33:47;95641.03;;;27.67;47.03
19590;BME280;12231;42.782;23.388;2022-07-22T04:36:12;95642.28;;;28.05;45.68
19590;BME280;12231;42.782;23.388;2022-07-22T04:38:38;95644.06;;;28.39;44.98
19590;BME280;12231;42.782;23.388;2022-07-22T04:41:03;95651.72;;;28.68;44.20
19590;BME280;12231;42.782;23.388;2022-07-22T04:43:29;95653.81;;;29.05;43.75
19590;BME280;12231;42.782;23.388;2022-07-22T04:45:55;95639.53;;;29.39;42.40
19590;BME280;12231;42.782;23.388;2022-07-22T04:48:21;95649.56;;;29.70;41.67
19590;BME280;12231;42.782;23.388;2022-07-22T04:50:46;95646.06;;;29.76;41.23
19590;BME280;12231;42.782;23.388;2022-07-22T04:53:12;95650.88;;;30.11;40.85
19590;BME280;12231;42.782;23.388;2022-07-22T04:55:37;95646.84;;;30.46;39.94
19590;BME280;12231;42.782;23.388;2022-07-22T04:58:03;95650.59;;;30.76;39.15
19590;BME280;12231;42.782;23.388;2022-07-22T05:17:48;95656.88;;;31.69;39.02
19590;BME280;12231;42.782;23.388;2022-07-22T05:20:14;95658.59;;;32.72;37.26
19590;BME280;12231;42.782;23.388;2022-07-22T05:22:41;95658.38;;;31.83;38.67
19590;BME280;12231;42.782;23.388;2022-07-22T05:25:07;95669.88;;;31.34;39.53
19590;BME280;12231;42.782;23.388;2022-07-22T05:27:33;95657.72;;;32.60;38.00
19590;BME280;12231;42.782;23.388;2022-07-22T05:29:58;95658.38;;;33.67;35.78
19590;BME280;12231;42.782;23.388;2022-07-22T05:32:24;95669.19;;;34.30;35.10
19590;BME280;12231;42.782;23.388;2022-07-22T05:34:49;95670.63;;;35.17;33.27
19590;BME280;12231;42.782;23.388;2022-07-22T05:37:15;95665.50;;;35.43;32.54
19590;BME280;12231;42.782;23.388;2022-07-22T05:39:42;95663.28;;;35.73;32.45
19590;BME280;12231;42.782;23.388;2022-07-22T05:42:08;95664.91;;;36.94;30.00
19590;BME280;12231;42.782;23.388;2022-07-22T05:44:33;95671.34;;;37.46;29.25
19590;BME280;12231;42.782;23.388;2022-07-22T05:46:58;95663.84;;;37.80;28.05
19590;BME280;12231;42.782;23.388;2022-07-22T05:49:24;95665.59;;;38.42;28.14
19590;BME280;12231;42.782;23.388;2022-07-22T05:51:52;95670.94;;;38.37;27.94
19590;BME280;12231;42.782;23.388;2022-07-22T05:54:17;95667.81;;;38.09;27.91
19590;BME280;12231;42.782;23.388;2022-07-22T05:56:43;95672.88;;;39.24;27.29
19590;BME280;12231;42.782;23.388;2022-07-22T05:59:08;95666.69;;;40.09;26.34
19590;BME280;12231;42.782;23.388;2022-07-22T06:01:34;95659.63;;;40.97;24.35
19590;BME280;12231;42.782;23.388;2022-07-22T06:03:59;95661.78;;;40.26;24.36
19590;BME280;12231;42.782;23.388;2022-07-22T06:06:24;95663.16;;;40.18;24.88
19590;BME280;12231;42.782;23.388;2022-07-22T06:08:50;95662.13;;;40.04;25.42
19590;BME280;12231;42.782;23.388;2022-07-22T06:11:15;95659.72;;;41.30;24.65
19590;BME280;12231;42.782;23.388;2022-07-22T06:13:41;95654.91;;;41.94;24.46
19590;BME280;12231;42.782;23.388;2022-07-22T06:16:06;95658.41;;;42.47;23.55
19590;BME280;12231;42.782;23.388;2022-07-22T06:18:32;95657.66;;;41.84;23.65
19590;BME280;12231;42.782;23.388;2022-07-22T06:20:57;95651.19;;;43.03;23.02
19590;BME280;12231;42.782;23.388;2022-07-22T06:23:23;95654.13;;;43.25;23.48
19590;BME280;12231;42.782;23.388;2022-07-22T06:25:49;95650.53;;;43.30;23.08
19590;BME280;12231;42.782;23.388;2022-07-22T06:28:14;95636.25;;;44.48;22.17
19590;BME280;12231;42.782;23.388;2022-07-22T06:30:40;95660.50;;;44.17;21.86
19590;BME280;12231;42.782;23.388;2022-07-22T06:33:06;95648.53;;;44.86;22.26
19590;BME280;12231;42.782;23.388;2022-07-22T06:35:31;95654.81;;;44.00;22.66
19590;BME280;12231;42.782;23.388;2022-07-22T06:37:56;95655.34;;;44.02;21.64
19590;BME280;12231;42.782;23.388;2022-07-22T06:40:22;95656.16;;;40.12;26.06
19590;BME280;12231;42.782;23.388;2022-07-22T06:42:47;95658.88;;;39.62;26.40
19590;BME280;12231;42.782;23.388;2022-07-22T06:45:13;95653.63;;;38.80;26.99
19590;BME280;12231;42.782;23.388;2022-07-22T06:47:38;95655.13;;;41.64;24.40
19590;BME280;12231;42.782;23.388;2022-07-22T06:50:07;95645.09;;;43.30;22.67
19590;BME280;12231;42.782;23.388;2022-07-22T06:52:33;95651.09;;;42.66;23.34
19590;BME280;12231;42.782;23.388;2022-07-22T06:54:59;95650.50;;;42.74;22.83
19590;BME280;12231;42.782;23.388;2022-07-22T06:57:24;95649.16;;;43.46;22.77
19590;BME280;12231;42.782;23.388;2022-07-22T06:59:49;95641.50;;;44.72;22.01
19590;BME280;12231;42.782;23.388;2022-07-22T07:02:15;95646.94;;;42.27;23.56
19590;BME280;12231;42.782;23.388;2022-07-22T07:04:40;95644.13;;;43.90;22.71
19590;BME280;12231;42.782;23.388;2022-07-22T07:07:07;95652.44;;;43.29;22.48
19590;BME280;12231;42.782;23.388;2022-07-22T07:09:33;95652.34;;;39.03;27.22
19590;BME280;12231;42.782;23.388;2022-07-22T07:11:58;95647.34;;;41.58;25.06
19590;BME280;12231;42.782;23.388;2022-07-22T07:14:23;95649.16;;;43.46;22.55
19590;BME280;12231;42.782;23.388;2022-07-22T07:16:49;95646.63;;;44.59;21.86
19590;BME280;12231;42.782;23.388;2022-07-22T07:19:14;95655.22;;;43.62;22.67
19590;BME280;12231;42.782;23.388;2022-07-22T07:21:40;95654.22;;;44.03;21.48
19590;BME280;12231;42.782;23.388;2022-07-22T07:24:05;95655.00;;;43.58;21.98
19590;BME280;12231;42.782;23.388;2022-07-22T07:26:31;95653.00;;;43.26;22.70
19590;BME280;12231;42.782;23.388;2022-07-22T07:28:56;95647.63;;;44.36;22.40
19590;BME280;12231;42.782;23.388;2022-07-22T07:31:22;95651.81;;;43.70;23.17
19590;BME280;12231;42.782;23.388;2022-07-22T07:33:47;95646.78;;;42.65;23.26
19590;BME280;12231;42.782;23.388;2022-07-22T07:36:13;95647.28;;;43.65;22.00
19590;BME280;12231;42.782;23.388;2022-07-22T07:38:39;95648.50;;;42.09;23.86
19590;BME280;12231;42.782;23.388;2022-07-22T07:41:05;95643.28;;;44.35;21.33
19590;BME280;12231;42.782;23.388;2022-07-22T07:43:30;95638.38;;;44.51;20.88
19590;BME280;12231;42.782;23.388;2022-07-22T07:45:56;95639.47;;;45.26;21.30
19590;BME280;12231;42.782;23.388;2022-07-22T07:48:21;95630.47;;;44.90;21.01
19590;BME280;12231;42.782;23.388;2022-07-22T07:50:46;95631.13;;;45.89;20.91
19590;BME280;12231;42.782;23.388;2022-07-22T07:53:16;95631.84;;;45.15;21.65
19590;BME280;12231;42.782;23.388;2022-07-22T07:55:41;95631.66;;;45.33;20.76
19590;BME280;12231;42.782;23.388;2022-07-22T07:58:07;95629.09;;;46.03;19.68
19590;BME280;12231;42.782;23.388;2022-07-22T08:00:33;95630.91;;;46.38;19.22
19590;BME280;12231;42.782;23.388;2022-07-22T08:03:00;95635.78;;;47.66;19.10
19590;BME280;12231;42.782;23.388;2022-07-22T08:05:25;95626.44;;;47.50;18.30
19590;BME280;12231;42.782;23.388;2022-07-22T08:07:51;95636.91;;;47.65;18.22
19590;BME280;12231;42.782;23.388;2022-07-22T08:10:18;95628.22;;;47.80;19.25
19590;BME280;12231;42.782;23.388;2022-07-22T08:12:44;95627.88;;;46.09;19.15
19590;BME280;12231;42.782;23.388;2022-07-22T08:15:09;95633.59;;;45.99;19.28
19590;BME280;12231;42.782;23.388;2022-07-22T08:17:35;95629.69;;;44.35;21.79
19590;BME280;12231;42.782;23.388;2022-07-22T08:20:01;95623.84;;;47.11;18.95
19590;BME280;12231;42.782;23.388;2022-07-22T08:22:26;95626.59;;;44.69;21.14
19590;BME280;12231;42.782;23.388;2022-07-22T08:24:52;95628.72;;;41.80;22.24
19590;BME280;12231;42.782;23.388;2022-07-22T08:27:19;95618.13;;;43.84;21.30
19590;BME280;12231;42.782;23.388;2022-07-22T08:29:44;95615.72;;;45.85;19.49
19590;BME280;12231;42.782;23.388;2022-07-22T08:32:10;95612.91;;;45.76;19.92
19590;BME280;12231;42.782;23.388;2022-07-22T08:34:35;95611.63;;;44.80;20.79
19590;BME280;12231;42.782;23.388;2022-07-22T08:37:01;95608.22;;;45.99;19.71
19590;BME280;12231;42.782;23.388;2022-07-22T08:39:26;95609.25;;;47.32;19.08
19590;BME280;12231;42.782;23.388;2022-07-22T08:41:52;95612.75;;;45.50;19.71
19590;BME280;12231;42.782;23.388;2022-07-22T08:44:19;95605.59;;;46.63;18.76
19590;BME280;12231;42.782;23.388;2022-07-22T08:46:45;95603.72;;;45.06;19.91
19590;BME280;12231;42.782;23.388;2022-07-22T08:49:14;95612.03;;;41.96;22.50
19590;BME280;12231;42.782;23.388;2022-07-22T08:51:39;95605.03;;;43.03;22.45
19590;BME280;12231;42.782;23.388;2022-07-22T08:54:04;95612.22;;;41.04;23.70
19590;BME280;12231;42.782;23.388;2022-07-22T08:56:30;95606.03;;;41.99;23.72
19590;BME280;12231;42.782;23.388;2022-07-22T08:58:56;95603.63;;;42.22;22.91
19590;BME280;12231;42.782;23.388;2022-07-22T09:01:21;95610.91;;;43.61;21.39
19590;BME280;12231;42.782;23.388;2022-07-22T09:03:49;95608.44;;;41.44;23.02
19590;BME280;12231;42.782;23.388;2022-07-22T09:06:19;95607.91;;;41.42;24.16
19590;BME280;12231;42.782;23.388;2022-07-22T09:08:57;95600.84;;;41.74;22.94
19590;BME280;12231;42.782;23.388;2022-07-22T09:11:25;95604.78;;;43.18;21.51
19590;BME280;12231;42.782;23.388;2022-07-22T09:13:52;95601.69;;;43.44;21.27
19590;BME280;12231;42.782;23.388;2022-07-22T09:16:43;95603.06;;;42.67;22.28
19590;BME280;12231;42.782;23.388;2022-07-22T09:19:10;95603.69;;;41.59;23.09
19590;BME280;12231;42.782;23.388;2022-07-22T09:21:38;95605.06;;;43.35;21.66
19590;BME280;12231;42.782;23.388;2022-07-22T09:24:04;95601.47;;;43.40;21.57
19590;BME280;12231;42.782;23.388;2022-07-22T09:26:38;95596.16;;;40.79;24.21
19590;BME280;12231;42.782;23.388;2022-07-22T09:29:05;95592.00;;;41.92;22.38
19590;BME280;12231;42.782;23.388;2022-07-22T09:31:33;95596.22;;;43.94;21.66
19590;BME280;12231;42.782;23.388;2022-07-22T09:34:00;95598.38;;;41.78;23.10
19590;BME280;12231;42.782;23.388;2022-07-22T09:36:26;95599.97;;;41.55;23.18
19590;BME280;12231;42.782;23.388;2022-07-22T09:38:52;95594.50;;;41.84;22.81
19590;BME280;12231;42.782;23.388;2022-07-22T09:41:18;95603.16;;;38.66;25.92
19590;BME280;12231;42.782;23.388;2022-07-22T09:43:43;95592.50;;;40.99;23.98
19590;BME280;12231;42.782;23.388;2022-07-22T09:46:09;95595.00;;;41.62;22.80
19590;BME280;12231;42.782;23.388;2022-07-22T09:48:36;95594.16;;;43.22;21.80
19590;BME280;12231;42.782;23.388;2022-07-22T09:51:03;95586.44;;;43.93;20.56
19590;BME280;12231;42.782;23.388;2022-07-22T09:53:29;95590.06;;;43.38;20.00
19590;BME280;12231;42.782;23.388;2022-07-22T09:56:00;95588.47;;;43.69;20.16
19590;BME280;12231;42.782;23.388;2022-07-22T09:58:26;95587.78;;;43.45;19.27
19590;BME280;12231;42.782;23.388;2022-07-22T10:00:52;95592.91;;;42.96;19.88
19590;BME280;12231;42.782;23.388;2022-07-22T10:03:24;95581.25;;;43.14;20.31
19590;BME280;12231;42.782;23.388;2022-07-22T10:05:51;95580.72;;;42.75;20.77
19590;BME280;12231;42.782;23.388;2022-07-22T10:08:17;95579.13;;;43.43;19.84
19590;BME280;12231;42.782;23.388;2022-07-22T10:10:43;95579.38;;;43.92;19.27
19590;BME280;12231;42.782;23.388;2022-07-22T10:13:09;95576.38;;;43.11;19.53
19590;BME280;12231;42.782;23.388;2022-07-22T10:15:36;95570.84;;;41.66;20.94
19590;BME280;12231;42.782;23.388;2022-07-22T10:18:07;95576.75;;;40.57;22.19
19590;BME280;12231;42.782;23.388;2022-07-22T10:20:34;95578.38;;;41.07;21.81
19590;BME280;12231;42.782;23.388;2022-07-22T10:23:05;95573.06;;;41.30;22.10
19590;BME280;12231;42.782;23.388;2022-07-22T10:25:54;95570.66;;;40.36;22.11
19590;BME280;12231;42.782;23.388;2022-07-22T10:28:29;95565.22;;;40.41;23.84
19590;BME280;12231;42.782;23.388;2022-07-22T10:33:40;95546.00;;;39.59;23.83
19590;BME280;12231;42.782;23.388;2022-07-22T10:36:06;95556.78;;;39.74;24.60
19590;BME280;12231;42.782;23.388;2022-07-22T10:38:33;95567.69;;;40.33;24.15
19590;BME280;12231;42.782;23.388;2022-07-22T10:41:04;95563.53;;;38.91;24.20
19590;BME280;12231;42.782;23.388;2022-07-22T10:43:51;95567.84;;;38.72;25.06
19590;BME280;12231;42.782;23.388;2022-07-22T10:46:16;95563.38;;;38.31;25.92
19590;BME280;12231;42.782;23.388;2022-07-22T10:51:11;95569.38;;;37.50;25.89
19590;BME280;12231;42.782;23.388;2022-07-22T10:58:50;95564.25;;;37.16;27.07
19590;BME280;12231;42.782;23.388;2022-07-22T11:01:18;95554.59;;;37.94;26.36
19590;BME280;12231;42.782;23.388;2022-07-22T11:03:46;95551.75;;;38.25;25.84
19590;BME280;12231;42.782;23.388;2022-07-22T11:06:32;95564.34;;;38.77;25.22
19590;BME280;12231;42.782;23.388;2022-07-22T11:09:00;95567.94;;;38.25;24.68
19590;BME280;12231;42.782;23.388;2022-07-22T11:11:48;95567.19;;;38.45;24.79
19590;BME280;12231;42.782;23.388;2022-07-22T11:16:50;95576.69;;;38.68;24.50
19590;BME280;12231;42.782;23.388;2022-07-22T11:19:24;95567.84;;;38.92;26.54
19590;BME280;12231;42.782;23.388;2022-07-22T11:21:52;95561.91;;;39.00;24.60
19590;BME280;12231;42.782;23.388;2022-07-22T11:24:19;95560.34;;;39.04;24.39
19590;BME280;12231;42.782;23.388;2022-07-22T11:26:48;95556.16;;;37.90;26.36
19590;BME280;12231;42.782;23.388;2022-07-22T11:31:44;95564.97;;;38.27;25.31
19590;BME280;12231;42.782;23.388;2022-07-22T11:34:15;95564.50;;;37.83;26.21
19590;BME280;12231;42.782;23.388;2022-07-22T11:36:42;95553.41;;;37.80;25.28
19590;BME280;12231;42.782;23.388;2022-07-22T11:39:09;95560.97;;;37.78;25.75
19590;BME280;12231;42.782;23.388;2022-07-22T11:41:35;95561.03;;;37.93;25.22
19590;BME280;12231;42.782;23.388;2022-07-22T11:44:01;95566.66;;;37.81;26.31
19590;BME280;12231;42.782;23.388;2022-07-22T11:46:27;95561.44;;;38.16;25.65
19590;BME280;12231;42.782;23.388;2022-07-22T11:48:54;95557.66;;;38.17;24.66
19590;BME280;12231;42.782;23.388;2022-07-22T11:51:28;95557.94;;;38.16;25.82
19590;BME280;12231;42.782;23.388;2022-07-22T11:53:55;95555.59;;;38.34;24.91
19590;BME280;12231;42.782;23.388;2022-07-22T11:56:20;95556.41;;;38.50;25.32
19590;BME280;12231;42.782;23.388;2022-07-22T11:58:48;95558.28;;;38.34;24.39
19590;BME280;12231;42.782;23.388;2022-07-22T12:01:21;95565.09;;;38.57;26.11
19590;BME280;12231;42.782;23.388;2022-07-22T12:03:50;95557.56;;;38.64;24.74
19590;BME280;12231;42.782;23.388;2022-07-22T12:06:17;95559.03;;;38.20;25.10
19590;BME280;12231;42.782;23.388;2022-07-22T12:08:45;95552.63;;;38.36;25.43
19590;BME280;12231;42.782;23.388;2022-07-22T12:11:13;95545.53;;;38.15;25.35
19590;BME280;12231;42.782;23.388;2022-07-22T12:13:44;95554.47;;;38.25;24.98
19590;BME280;12231;42.782;23.388;2022-07-22T12:16:23;95560.19;;;38.49;25.42
19590;BME280;12231;42.782;23.388;2022-07-22T12:21:22;95547.78;;;38.43;23.76
19590;BME280;12231;42.782;23.388;2022-07-22T12:23:55;95550.97;;;38.25;23.82
19590;BME280;12231;42.782;23.388;2022-07-22T12:26:42;95531.72;;;38.01;25.29
19590;BME280;12231;42.782;23.388;2022-07-22T12:32:01;95543.94;;;38.19;25.10
19590;BME280;12231;42.782;23.388;2022-07-22T12:36:59;95537.53;;;38.30;25.47
19590;BME280;12231;42.782;23.388;2022-07-22T12:39:27;95542.94;;;38.50;24.81
19590;BME280;12231;42.782;23.388;2022-07-22T12:41:54;95543.81;;;38.61;24.68
19590;BME280;12231;42.782;23.388;2022-07-22T12:44:26;95535.81;;;38.14;24.63
19590;BME280;12231;42.782;23.388;2022-07-22T12:46:55;95540.72;;;38.17;24.45
19590;BME280;12231;42.782;23.388;2022-07-22T12:49:25;95532.91;;;38.25;25.06
19590;BME280;12231;42.782;23.388;2022-07-22T12:52:06;95539.66;;;38.28;24.56
19590;BME280;12231;42.782;23.388;2022-07-22T12:54:33;95531.94;;;37.90;24.46
19590;BME280;12231;42.782;23.388;2022-07-22T12:57:00;95534.38;;;37.96;24.60
19590;BME280;12231;42.782;23.388;2022-07-22T12:59:26;95515.28;;;36.78;26.18
19590;BME280;12231;42.782;23.388;2022-07-22T13:01:51;95529.66;;;36.40;26.62
19590;BME280;12231;42.782;23.388;2022-07-22T13:04:16;95539.59;;;36.93;26.36
19590;BME280;12231;42.782;23.388;2022-07-22T13:06:42;95529.31;;;37.22;25.95
19590;BME280;12231;42.782;23.388;2022-07-22T13:09:07;95528.59;;;36.94;25.25
19590;BME280;12231;42.782;23.388;2022-07-22T13:11:33;95535.06;;;37.30;25.76
19590;BME280;12231;42.782;23.388;2022-07-22T13:14:05;95526.97;;;37.67;26.09
19590;BME280;12231;42.782;23.388;2022-07-22T13:16:31;95527.84;;;37.77;24.59
19590;BME280;12231;42.782;23.388;2022-07-22T13:18:56;95529.50;;;37.88;25.79
19590;BME280;12231;42.782;23.388;2022-07-22T13:21:22;95540.00;;;37.90;25.61
19590;BME280;12231;42.782;23.388;2022-07-22T13:23:47;95539.56;;;38.08;25.19
19590;BME280;12231;42.782;23.388;2022-07-22T13:26:13;95541.69;;;37.96;24.28
19590;BME280;12231;42.782;23.388;2022-07-22T13:28:38;95538.16;;;37.95;24.86